Time;durP1;ratioP1;P1;durP2;ratioP2;P2;SDS_P1;SDS_P2;PMS_P1;PMS_P2;Temp;Humidity;BMP_temperature;BMP_pressure;BME280_temperature;BME280_humidity;BME280_pressure;Samples;Min_cycle;Max_cycle;Signal;HPM_P1;HPM_P2
2023/02/20 00:02:23;;;;;;;20.98;12.57;;;5.30;99.90;;;;;;6247819;22;20007;-86
2023/02/20 00:04:49;;;;;;;27.45;14.75;;;5.40;99.90;;;;;;6248984;22;20011;-86
2023/02/20 00:07:14;;;;;;;24.95;13.52;;;5.40;99.90;;;;;;6248656;22;20007;-85
2023/02/20 00:09:40;;;;;;;25.70;13.07;;;5.50;99.90;;;;;;6249086;22;20010;-86
2023/02/20 00:12:05;;;;;;;23.65;12.75;;;5.50;99.90;;;;;;6249065;22;20373;-86
2023/02/20 00:14:31;;;;;;;23.85;13.18;;;5.50;99.90;;;;;;6249500;22;20425;-86
2023/02/20 00:16:56;;;;;;;25.52;11.88;;;5.50;99.90;;;;;;6276008;22;20000;-86
2023/02/20 00:19:22;;;;;;;21.92;12.38;;;5.60;99.90;;;;;;6249061;22;20346;-86
2023/02/20 00:21:49;;;;;;;21.70;12.07;;;5.60;99.90;;;;;;6248819;22;20004;-85
2023/02/20 00:24:15;;;;;;;22.30;11.65;;;5.60;99.90;;;;;;6275853;22;20093;-86
2023/02/20 00:26:48;;;;;;;18.92;11.30;;;5.60;99.90;;;;;;6249329;22;20453;-85
2023/02/20 00:29:16;;;;;;;23.25;11.82;;;5.60;99.90;;;;;;6249304;22;20441;-86
2023/02/20 00:31:42;;;;;;;18.95;10.70;;;5.60;99.90;;;;;;6249471;22;19999;-86
2023/02/20 00:34:07;;;;;;;20.73;11.07;;;5.60;99.90;;;;;;6248857;22;20011;-86
2023/02/20 00:36:33;;;;;;;21.13;11.10;;;5.70;99.90;;;;;;6248430;22;20126;-86
2023/02/20 00:38:58;;;;;;;22.73;11.57;;;5.70;99.90;;;;;;6249130;22;20004;-86
2023/02/20 00:41:24;;;;;;;21.58;10.35;;;5.70;99.90;;;;;;6274060;22;20011;-86
2023/02/20 00:43:49;;;;;;;23.13;12.05;;;5.70;99.90;;;;;;6274648;22;20019;-85
2023/02/20 00:46:16;;;;;;;19.75;11.05;;;5.70;99.90;;;;;;6275795;22;19996;-86
2023/02/20 00:48:41;;;;;;;21.30;11.18;;;5.70;99.90;;;;;;6249265;22;20019;-85
2023/02/20 00:51:07;;;;;;;20.27;10.02;;;5.70;99.90;;;;;;6248574;22;20004;-86
2023/02/20 00:53:32;;;;;;;20.35;10.88;;;5.70;99.90;;;;;;6248585;22;20008;-85
2023/02/20 00:55:58;;;;;;;18.95;10.63;;;5.70;99.90;;;;;;6249147;22;20422;-85
2023/02/20 00:58:23;;;;;;;22.65;11.05;;;5.70;99.90;;;;;;6248302;22;20098;-86
2023/02/20 01:00:49;;;;;;;21.17;10.68;;;5.70;99.90;;;;;;6247748;22;20492;-85
2023/02/20 01:03:14;;;;;;;19.52;11.20;;;5.70;99.90;;;;;;6247040;22;20062;-86
2023/02/20 01:05:40;;;;;;;25.80;11.20;;;5.70;99.90;;;;;;6249567;22;20036;-86
2023/02/20 01:08:05;;;;;;;20.92;10.18;;;5.70;99.90;;;;;;6275647;22;20078;-86
2023/02/20 01:10:31;;;;;;;23.98;11.20;;;5.70;99.90;;;;;;6249710;22;20031;-86
2023/02/20 01:12:56;;;;;;;20.10;10.68;;;5.60;99.90;;;;;;6248414;22;20000;-86
2023/02/20 01:15:22;;;;;;;18.73;10.30;;;5.60;99.90;;;;;;6247479;22;20008;-85
2023/02/20 01:17:48;;;;;;;21.27;10.65;;;5.60;99.90;;;;;;6248996;22;20039;-85
2023/02/20 01:20:14;;;;;;;19.30;10.93;;;5.60;99.90;;;;;;6248401;22;20024;-86
2023/02/20 01:22:40;;;;;;;18.55;11.25;;;5.60;99.90;;;;;;6275249;22;20323;-85
2023/02/20 01:25:06;;;;;;;23.33;11.57;;;5.60;99.90;;;;;;6248338;22;20453;-85
2023/02/20 01:27:31;;;;;;;23.10;11.40;;;5.60;99.90;;;;;;6248918;22;20010;-86
2023/02/20 01:29:57;;;;;;;24.85;11.63;;;5.60;99.90;;;;;;6248870;22;20003;-85
2023/02/20 01:32:22;;;;;;;24.42;11.80;;;5.60;99.90;;;;;;6247930;22;20026;-85
2023/02/20 01:34:48;;;;;;;22.73;10.73;;;5.60;99.90;;;;;;6249359;22;20364;-86
2023/02/20 01:37:14;;;;;;;24.08;11.93;;;5.60;99.90;;;;;;6248220;22;20007;-86
2023/02/20 01:39:40;;;;;;;27.10;11.93;;;5.60;99.90;;;;;;6248307;22;19999;-85
2023/02/20 01:42:10;;;;;;;23.52;12.20;;;5.50;99.90;;;;;;6247904;22;20053;-86
2023/02/20 01:44:36;;;;;;;26.10;12.45;;;5.50;99.90;;;;;;6248802;22;20106;-86
2023/02/20 01:47:28;;;;;;;22.88;12.13;;;5.50;99.90;;;;;;6248280;22;20032;-86
2023/02/20 01:49:59;;;;;;;20.27;11.88;;;5.50;99.90;;;;;;6243974;22;20069;-85
2023/02/20 01:52:30;;;;;;;21.25;11.13;;;5.40;99.90;;;;;;6247731;22;20437;-86
2023/02/20 01:55:28;;;;;;;27.80;12.57;;;5.40;99.90;;;;;;6248992;22;20094;-86
2023/02/20 01:58:07;;;;;;;21.70;11.68;;;5.40;99.90;;;;;;6228225;22;20011;-85
2023/02/20 02:00:33;;;;;;;23.60;11.75;;;5.40;99.90;;;;;;6248352;22;20060;-86
2023/02/20 02:03:16;;;;;;;24.20;13.07;;;5.40;99.90;;;;;;6247576;22;20012;-85
2023/02/20 02:05:45;;;;;;;23.85;12.73;;;5.50;99.90;;;;;;6248262;22;20532;-86
2023/02/20 02:08:13;;;;;;;23.00;12.75;;;5.40;99.90;;;;;;6247850;22;20003;-85
2023/02/20 02:11:02;;;;;;;29.25;13.40;;;5.40;99.90;;;;;;6246780;22;20004;-85
2023/02/20 02:13:32;;;;;;;22.75;12.82;;;5.40;99.90;;;;;;6247925;22;20004;-85
2023/02/20 02:16:29;;;;;;;27.40;13.82;;;5.40;99.90;;;;;;6247827;22;20513;-85
2023/02/20 02:18:57;;;;;;;26.50;14.15;;;5.40;99.90;;;;;;6248293;22;20012;-85
2023/02/20 02:22:13;;;;;;;29.00;14.80;;;5.40;99.90;;;;;;6248261;22;20087;-85
2023/02/20 02:24:58;;;;;;;25.00;14.40;;;5.50;99.90;;;;;;6248158;22;20552;-85
2023/02/20 02:27:48;;;;;;;27.95;14.93;;;5.50;99.90;;;;;;6248207;22;20323;-85
2023/02/20 02:30:48;;;;;;;26.67;15.02;;;5.50;99.90;;;;;;6246616;22;20118;-85
2023/02/20 02:33:22;;;;;;;27.42;14.25;;;5.50;99.90;;;;;;6247953;22;20008;-85
2023/02/20 02:36:15;;;;;;;34.78;15.68;;;5.50;99.90;;;;;;6248109;22;20396;-85
2023/02/20 02:39:22;;;;;;;31.20;15.23;;;5.40;99.90;;;;;;6247983;22;19996;-86
2023/02/20 02:42:02;;;;;;;30.27;14.82;;;5.50;99.90;;;;;;6156527;23;20001;-86
2023/02/20 02:44:43;;;;;;;30.10;14.57;;;5.40;99.90;;;;;;6238195;22;20014;-85
2023/02/20 02:47:48;;;;;;;29.40;16.27;;;5.40;99.90;;;;;;6247385;22;20004;-85
2023/02/20 02:50:22;;;;;;;32.72;14.88;;;5.50;99.90;;;;;;6247158;22;20003;-86
2023/02/20 02:52:50;;;;;;;32.20;16.23;;;5.50;99.90;;;;;;6248068;22;20000;-86
2023/02/20 02:55:25;;;;;;;28.58;15.40;;;5.50;99.90;;;;;;6247628;22;20437;-86
2023/02/20 02:57:50;;;;;;;30.48;16.33;;;5.60;99.90;;;;;;6247289;22;20452;-85
2023/02/20 03:00:34;;;;;;;30.77;17.83;;;5.70;99.90;;;;;;6246897;22;20004;-85
2023/02/20 03:03:18;;;;;;;33.83;17.20;;;5.70;99.90;;;;;;6246959;22;20019;-85
2023/02/20 03:05:53;;;;;;;43.85;18.52;;;5.70;99.90;;;;;;6247738;22;20030;-86
2023/02/20 03:08:56;;;;;;;37.80;19.27;;;5.80;99.90;;;;;;6275157;22;20004;-86
2023/02/20 03:11:23;;;;;;;;;;;5.80;99.90;;;;;;6274243;22;20072;-86
2023/02/20 03:17:04;;;;;;;39.72;18.58;;;5.80;99.90;;;;;;6275093;22;20018;-87
2023/02/20 03:20:04;;;;;;;38.92;19.92;;;5.90;99.90;;;;;;6247511;22;20111;-86
2023/02/20 03:22:38;;;;;;;44.88;21.48;;;5.90;99.90;;;;;;6242983;22;20096;-86
2023/02/20 03:25:26;;;;;;;44.13;23.67;;;6.00;99.90;;;;;;6274169;22;20016;-86
2023/02/20 03:28:22;;;;;;;50.75;25.88;;;6.00;99.90;;;;;;6274340;22;20000;-86
2023/02/20 03:31:09;;;;;;;44.17;24.98;;;6.00;99.90;;;;;;6236008;22;20091;-86
2023/02/20 03:44:54;;;;;;;52.78;28.48;;;6.10;99.90;;;;;;6274105;22;20472;-86
2023/02/20 03:47:24;;;;;;;53.95;29.52;;;6.20;99.90;;;;;;6273970;22;20000;-86
2023/02/20 03:52:37;;;;;;;56.08;30.98;;;6.20;99.90;;;;;;6274984;22;20095;-86
2023/02/20 03:55:03;;;;;;;60.95;34.80;;;6.30;99.90;;;;;;6274340;22;20035;-86
2023/02/20 03:57:37;;;;;;;65.60;33.03;;;6.30;99.90;;;;;;6247469;22;20445;-86
2023/02/20 04:00:11;;;;;;;68.07;35.55;;;6.30;99.90;;;;;;6274950;22;20079;-86
2023/02/20 04:02:41;;;;;;;69.40;35.63;;;6.30;99.90;;;;;;6273789;22;20053;-87
2023/02/20 04:05:14;;;;;;;65.78;37.63;;;6.40;99.90;;;;;;6247406;22;20011;-86
2023/02/20 04:07:58;;;;;;;71.57;38.85;;;6.30;99.90;;;;;;6247043;22;20007;-86
2023/02/20 04:10:33;;;;;;;71.10;37.15;;;6.40;99.90;;;;;;6247541;22;20008;-86
2023/02/20 04:13:00;;;;;;;71.13;36.47;;;6.40;99.90;;;;;;6274254;22;20064;-87
2023/02/20 04:15:27;;;;;;;77.78;40.30;;;6.40;99.90;;;;;;6274927;22;20429;-86
2023/02/20 04:18:04;;;;;;;71.78;36.60;;;6.50;99.90;;;;;;6246673;22;19999;-86
2023/02/20 04:20:30;;;;;;;79.85;40.78;;;6.50;99.90;;;;;;6248085;22;20016;-86
2023/02/20 04:23:01;;;;;;;75.78;38.53;;;6.50;99.90;;;;;;6247042;22;20003;-86
2023/02/20 04:25:40;;;;;;;79.97;38.72;;;6.50;99.90;;;;;;6274503;22;19996;-87
2023/02/20 04:28:06;;;;;;;82.07;41.60;;;6.60;99.90;;;;;;6246602;22;20003;-86
2023/02/20 04:30:32;;;;;;;80.72;40.33;;;6.60;99.90;;;;;;6249532;22;20086;-85
2023/02/20 04:32:57;;;;;;;74.07;40.53;;;6.60;99.90;;;;;;6249013;22;20612;-86
2023/02/20 04:35:23;;;;;;;69.90;39.78;;;6.60;99.90;;;;;;6248768;22;20338;-86
2023/02/20 04:37:49;;;;;;;74.38;39.25;;;6.70;99.90;;;;;;6248973;22;20014;-86
2023/02/20 04:40:17;;;;;;;75.22;38.58;;;6.70;99.90;;;;;;6248311;22;20011;-85
2023/02/20 04:42:43;;;;;;;77.88;41.60;;;6.80;99.90;;;;;;6249119;22;20003;-87
2023/02/20 04:45:08;;;;;;;83.45;40.05;;;6.80;99.90;;;;;;6248841;22;20061;-87
2023/02/20 04:47:34;;;;;;;75.10;40.38;;;6.80;99.90;;;;;;6249620;22;20318;-86
2023/02/20 04:50:00;;;;;;;69.50;39.78;;;6.90;99.90;;;;;;6249305;22;20025;-86
2023/02/20 04:52:25;;;;;;;63.28;36.90;;;6.90;99.90;;;;;;6248886;22;20090;-87
2023/02/20 04:54:51;;;;;;;63.75;35.13;;;6.90;99.90;;;;;;6250176;22;20053;-86
2023/02/20 04:57:17;;;;;;;70.53;38.72;;;6.90;99.90;;;;;;6249617;22;20046;-87
2023/02/20 04:59:43;;;;;;;67.88;37.25;;;7.00;99.90;;;;;;6249162;22;20426;-86
2023/02/20 05:02:09;;;;;;;69.78;38.35;;;7.00;99.90;;;;;;6247984;22;20000;-86
2023/02/20 05:04:35;;;;;;;62.58;36.88;;;7.00;99.90;;;;;;6249392;22;20137;-86
2023/02/20 05:07:01;;;;;;;72.15;38.85;;;7.00;99.90;;;;;;6275833;22;20004;-86
2023/02/20 05:09:26;;;;;;;66.78;35.85;;;7.00;99.90;;;;;;6275018;22;20053;-87
2023/02/20 05:11:52;;;;;;;63.85;36.28;;;7.00;99.90;;;;;;6276346;22;20026;-87
2023/02/20 05:14:19;;;;;;;58.58;34.97;;;7.00;99.90;;;;;;6249021;22;20446;-87
2023/02/20 05:16:45;;;;;;;55.63;32.53;;;7.10;99.90;;;;;;6275124;22;20437;-87
2023/02/20 05:19:12;;;;;;;60.05;35.28;;;7.10;99.90;;;;;;6275099;22;20023;-86
2023/02/20 05:24:27;;;;;;;55.88;30.70;;;7.10;99.90;;;;;;6276532;22;20019;-86
2023/02/20 05:26:53;;;;;;;61.58;33.65;;;7.10;99.90;;;;;;6249602;22;20004;-87
2023/02/20 05:29:18;;;;;;;60.83;33.15;;;7.10;99.90;;;;;;6248606;22;20095;-86
2023/02/20 05:31:44;;;;;;;60.63;33.72;;;7.10;99.90;;;;;;6249545;22;20460;-87
2023/02/20 05:34:09;;;;;;;52.17;30.35;;;7.20;99.90;;;;;;6248687;22;20023;-86
2023/02/20 05:36:35;;;;;;;45.00;26.55;;;7.20;99.90;;;;;;6249561;22;19999;-87
2023/02/20 05:39:01;;;;;;;45.63;25.90;;;7.20;99.90;;;;;;6251211;22;20004;-87
2023/02/20 05:41:27;;;;;;;53.08;27.20;;;7.20;99.90;;;;;;6256433;22;20004;-86
2023/02/20 05:43:56;;;;;;;48.55;27.33;;;7.20;99.90;;;;;;6256983;22;20166;-86
2023/02/20 05:46:23;;;;;;;49.20;25.30;;;7.20;99.90;;;;;;6251015;22;19999;-86
2023/02/20 05:48:49;;;;;;;51.85;27.60;;;7.30;99.90;;;;;;6248427;22;20094;-86
2023/02/20 05:51:28;;;;;;;47.55;25.45;;;7.30;99.90;;;;;;6249069;22;20002;-86
2023/02/20 05:53:55;;;;;;;43.95;24.40;;;7.30;99.90;;;;;;6249595;22;20145;-87
2023/02/20 05:56:21;;;;;;;44.00;25.10;;;7.30;99.90;;;;;;6249204;22;20008;-86
2023/02/20 05:58:48;;;;;;;48.28;25.85;;;7.30;99.90;;;;;;6247609;22;20034;-86
2023/02/20 06:01:24;;;;;;;45.20;25.08;;;7.40;99.90;;;;;;6247709;22;20000;-87
2023/02/20 06:03:50;;;;;;;43.15;23.23;;;7.40;99.90;;;;;;6247724;22;20440;-86
2023/02/20 06:06:17;;;;;;;48.85;25.20;;;7.40;99.90;;;;;;6248717;22;20079;-87
2023/02/20 06:08:42;;;;;;;42.00;23.23;;;7.50;99.90;;;;;;6249116;22;20004;-86
2023/02/20 06:11:10;;;;;;;44.97;23.52;;;7.50;99.90;;;;;;6247752;22;20008;-86
2023/02/20 06:13:38;;;;;;;44.80;23.88;;;7.50;99.90;;;;;;6249010;22;20008;-86
2023/02/20 06:16:04;;;;;;;41.97;23.38;;;7.50;99.90;;;;;;6249129;22;20004;-86
2023/02/20 06:18:30;;;;;;;47.90;22.55;;;7.50;99.90;;;;;;6249245;22;20461;-87
2023/02/20 06:20:55;;;;;;;41.90;21.55;;;7.50;99.90;;;;;;6248567;22;20007;-87
2023/02/20 06:23:21;;;;;;;44.95;22.63;;;7.50;99.90;;;;;;6248011;22;20098;-87
2023/02/20 06:25:46;;;;;;;41.85;20.95;;;7.50;99.90;;;;;;6248445;22;20007;-87
2023/02/20 06:28:12;;;;;;;37.95;21.33;;;7.60;99.90;;;;;;6248733;22;20003;-86
2023/02/20 06:30:37;;;;;;;39.03;21.50;;;7.50;99.90;;;;;;6248547;22;20002;-86
2023/02/20 06:33:03;;;;;;;45.65;22.02;;;7.50;99.90;;;;;;6248708;22;20069;-87
2023/02/20 06:35:28;;;;;;;40.42;19.58;;;7.50;99.90;;;;;;6248228;22;20026;-87
2023/02/20 06:37:54;;;;;;;47.85;21.58;;;7.50;99.90;;;;;;6248849;22;20011;-86
2023/02/20 06:40:20;;;;;;;44.60;22.48;;;7.50;99.90;;;;;;6247928;22;20003;-87
2023/02/20 06:42:45;;;;;;;47.60;21.52;;;7.60;99.90;;;;;;6248240;22;20012;-87
2023/02/20 06:45:11;;;;;;;47.63;22.77;;;7.50;99.90;;;;;;6275721;22;20337;-87
2023/02/20 06:47:36;;;;;;;46.38;21.92;;;7.60;99.90;;;;;;6275979;22;19996;-86
2023/02/20 06:50:03;;;;;;;42.33;20.17;;;7.60;99.90;;;;;;6248334;22;20083;-87
2023/02/20 06:52:28;;;;;;;42.25;20.15;;;7.60;99.90;;;;;;6248263;22;20034;-86
2023/02/20 06:54:54;;;;;;;47.85;22.02;;;7.60;99.90;;;;;;6248722;22;20012;-87
2023/02/20 06:57:20;;;;;;;43.28;22.58;;;7.60;99.90;;;;;;6248723;22;20010;-87
2023/02/20 06:59:46;;;;;;;43.22;21.45;;;7.70;99.90;;;;;;6248933;22;20008;-87
2023/02/20 07:02:12;;;;;;;43.90;22.20;;;7.60;99.90;;;;;;6247165;22;19996;-86
2023/02/20 07:04:38;;;;;;;39.20;22.05;;;7.70;99.90;;;;;;6248764;22;20042;-86
2023/02/20 07:07:04;;;;;;;43.50;20.75;;;7.70;99.90;;;;;;6248552;22;20445;-86
2023/02/20 07:09:30;;;;;;;41.75;22.05;;;7.70;99.90;;;;;;6247938;22;20065;-87
2023/02/20 07:11:55;;;;;;;42.75;20.58;;;7.70;99.90;;;;;;6248173;22;19995;-86
2023/02/20 07:14:21;;;;;;;43.63;20.67;;;7.70;99.90;;;;;;6248816;22;20019;-86
2023/02/20 07:16:47;;;;;;;46.47;22.55;;;7.80;99.90;;;;;;6249278;22;20138;-86
2023/02/20 07:19:13;;;;;;;43.40;22.30;;;7.80;99.90;;;;;;6249516;22;20094;-86
2023/02/20 07:21:38;;;;;;;41.45;23.30;;;7.80;99.90;;;;;;6250650;22;20396;-86
2023/02/20 07:24:04;;;;;;;43.40;21.38;;;7.80;99.90;;;;;;6250016;22;20075;-86
2023/02/20 07:26:30;;;;;;;41.58;22.17;;;7.80;99.90;;;;;;6250268;22;20090;-86
2023/02/20 07:28:57;;;;;;;47.95;22.60;;;7.80;99.90;;;;;;6250037;22;20004;-86
2023/02/20 07:31:23;;;;;;;38.25;20.75;;;7.90;99.90;;;;;;6250346;22;20027;-86
2023/02/20 07:33:49;;;;;;;41.95;20.10;;;7.90;99.90;;;;;;6250316;22;20007;-85
2023/02/20 07:36:15;;;;;;;45.83;22.45;;;7.90;99.90;;;;;;6249908;22;20441;-87
2023/02/20 07:38:41;;;;;;;46.22;24.05;;;7.90;99.90;;;;;;6248847;22;20035;-86
2023/02/20 07:41:08;;;;;;;42.05;20.55;;;7.90;99.90;;;;;;6247587;22;20000;-86
2023/02/20 07:43:34;;;;;;;40.08;20.98;;;7.90;99.90;;;;;;6249646;22;20015;-87
2023/02/20 07:46:00;;;;;;;38.38;21.10;;;7.90;99.90;;;;;;6277781;22;20004;-87
2023/02/20 07:48:25;;;;;;;47.35;23.40;;;8.00;99.90;;;;;;6276613;22;20125;-86
2023/02/20 07:50:51;;;;;;;44.65;22.70;;;8.00;99.90;;;;;;6248274;22;20004;-86
2023/02/20 07:53:18;;;;;;;46.80;22.92;;;8.00;99.90;;;;;;6246450;22;20088;-85
2023/02/20 07:55:44;;;;;;;39.65;22.27;;;8.00;99.90;;;;;;6248549;22;20054;-86
2023/02/20 07:58:10;;;;;;;36.38;22.08;;;8.00;99.90;;;;;;6247468;22;20012;-85
2023/02/20 08:00:35;;;;;;;47.58;23.45;;;8.00;99.90;;;;;;6248353;22;20424;-87
2023/02/20 08:03:01;;;;;;;34.38;20.35;;;8.00;99.90;;;;;;6247750;22;20004;-86
2023/02/20 08:05:27;;;;;;;40.95;21.13;;;8.00;99.90;;;;;;6250727;22;20134;-87
2023/02/20 08:07:53;;;;;;;45.03;23.13;;;8.00;99.90;;;;;;6248907;22;19999;-86
2023/02/20 08:10:21;;;;;;;43.53;23.95;;;8.10;99.90;;;;;;6248188;22;20086;-86
2023/02/20 08:12:48;;;;;;;44.65;23.25;;;8.10;99.90;;;;;;6247917;22;20053;-86
2023/02/20 08:15:14;;;;;;;44.80;22.95;;;8.10;99.90;;;;;;6247740;22;20006;-85
2023/02/20 08:17:40;;;;;;;45.72;22.90;;;8.10;99.90;;;;;;6250029;22;20004;-86
2023/02/20 08:20:07;;;;;;;43.45;21.05;;;8.10;99.90;;;;;;6248104;22;20019;-86
2023/02/20 08:22:33;;;;;;;47.38;23.50;;;8.10;99.90;;;;;;6247881;22;20090;-87
2023/02/20 08:24:59;;;;;;;40.88;21.38;;;8.10;99.90;;;;;;6248705;22;20026;-87
2023/02/20 08:27:25;;;;;;;41.33;22.60;;;8.20;99.90;;;;;;6251392;22;20039;-86
2023/02/20 08:29:50;;;;;;;41.45;23.77;;;8.20;99.90;;;;;;6249944;22;20095;-86
2023/02/20 08:32:16;;;;;;;44.53;23.33;;;8.20;99.90;;;;;;6249298;22;20007;-86
2023/02/20 08:34:42;;;;;;;39.20;22.70;;;8.20;99.90;;;;;;6249367;22;20034;-86
2023/02/20 08:37:08;;;;;;;41.92;21.35;;;8.20;99.90;;;;;;6249181;22;20026;-85
2023/02/20 08:39:35;;;;;;;39.45;20.85;;;8.20;99.90;;;;;;6278764;22;19999;-86
2023/02/20 08:42:01;;;;;;;43.08;23.98;;;8.20;99.90;;;;;;6249951;22;20532;-85
2023/02/20 08:44:26;;;;;;;48.40;23.00;;;8.30;99.90;;;;;;6250487;22;20035;-87
2023/02/20 08:46:52;;;;;;;37.47;20.23;;;8.30;99.90;;;;;;6249733;22;20426;-85
2023/02/20 08:49:18;;;;;;;39.83;20.92;;;8.30;99.90;;;;;;6250461;22;20000;-85
2023/02/20 08:51:47;;;;;;;37.97;20.52;;;8.30;99.90;;;;;;6250353;22;20003;-86
2023/02/20 08:54:14;;;;;;;36.08;20.10;;;8.30;99.90;;;;;;6249270;22;20000;-86
2023/02/20 08:56:41;;;;;;;35.92;19.50;;;8.30;99.90;;;;;;6277453;22;19999;-86
2023/02/20 08:59:07;;;;;;;33.88;18.60;;;8.40;99.90;;;;;;6278806;22;20011;-88
2023/02/20 09:01:32;;;;;;;39.85;19.60;;;8.40;99.90;;;;;;6276378;22;19992;-85
2023/02/20 09:03:58;;;;;;;38.13;19.42;;;8.50;99.90;;;;;;6275674;22;20078;-83
2023/02/20 09:06:25;;;;;;;35.95;20.60;;;8.50;99.90;;;;;;6247980;22;20003;-85
2023/02/20 09:08:51;;;;;;;35.58;18.60;;;8.50;99.90;;;;;;6247494;22;20337;-85
2023/02/20 09:11:17;;;;;;;35.65;18.70;;;8.60;99.90;;;;;;6247860;22;20153;-85
2023/02/20 09:13:44;;;;;;;37.53;19.50;;;8.60;99.90;;;;;;6277905;22;20007;-85
2023/02/20 09:16:14;;;;;;;37.83;19.17;;;8.60;99.90;;;;;;6247982;22;20398;-85
2023/02/20 09:18:39;;;;;;;38.50;19.40;;;8.70;99.90;;;;;;6276629;22;20071;-84
2023/02/20 09:21:09;;;;;;;32.00;17.92;;;8.70;99.90;;;;;;6249727;22;20008;-84
2023/02/20 09:23:35;;;;;;;43.17;19.70;;;8.70;99.90;;;;;;6275939;22;20012;-85
2023/02/20 09:26:01;;;;;;;33.58;17.55;;;8.80;99.90;;;;;;6247379;22;20011;-84
2023/02/20 09:28:26;;;;;;;33.13;17.10;;;8.80;99.90;;;;;;6246701;22;20472;-85
2023/02/20 09:30:54;;;;;;;38.97;18.42;;;8.80;99.90;;;;;;6249125;22;20381;-85
2023/02/20 09:33:20;;;;;;;31.42;17.55;;;8.80;99.90;;;;;;6275973;22;20042;-85
2023/02/20 09:35:48;;;;;;;37.08;18.95;;;8.80;99.90;;;;;;6249411;22;20003;-85
2023/02/20 09:38:14;;;;;;;35.83;19.73;;;8.80;99.90;;;;;;6248992;22;20007;-85
2023/02/20 09:40:40;;;;;;;31.73;18.48;;;8.90;99.90;;;;;;6249403;22;19995;-85
2023/02/20 09:43:33;;;;;;;32.20;18.65;;;8.90;99.90;;;;;;6249064;22;20003;-84
2023/02/20 09:46:05;;;;;;;29.85;16.63;;;8.90;99.90;;;;;;6233325;22;20000;-85
2023/02/20 09:48:57;;;;;;;35.45;18.50;;;9.00;99.90;;;;;;6249039;22;20011;-84
2023/02/20 09:51:26;;;;;;;38.00;18.87;;;9.00;99.90;;;;;;6247424;22;20027;-85
2023/02/20 09:54:01;;;;;;;33.55;17.33;;;9.00;99.90;;;;;;6248460;22;20320;-85
2023/02/20 09:56:32;;;;;;;34.10;19.30;;;9.00;99.90;;;;;;6275673;22;20000;-85
2023/02/20 09:59:17;;;;;;;40.75;20.40;;;9.00;99.90;;;;;;6248166;22;20006;-85
2023/02/20 10:01:55;;;;;;;38.47;19.70;;;9.10;99.90;;;;;;6275191;22;20079;-84
2023/02/20 10:04:29;;;;;;;34.85;19.65;;;9.00;99.90;;;;;;6248253;22;20445;-85
2023/02/20 10:07:03;;;;;;;35.85;18.58;;;9.00;99.90;;;;;;6248175;22;20460;-85
2023/02/20 10:09:29;;;;;;;34.05;19.17;;;9.00;99.90;;;;;;6245888;22;20004;-84
2023/02/20 10:12:27;;;;;;;33.47;18.98;;;9.00;99.90;;;;;;6249436;22;20026;-84
2023/02/20 10:15:11;;;;;;;30.30;18.08;;;9.00;99.90;;;;;;6248595;22;20003;-85
2023/02/20 10:18:12;;;;;;;37.58;19.15;;;9.10;99.90;;;;;;6250254;22;20345;-85
2023/02/20 10:21:05;;;;;;;33.40;18.30;;;9.10;99.90;;;;;;6244204;22;20408;-84
2023/02/20 10:23:43;;;;;;;31.95;17.50;;;9.10;99.90;;;;;;6247929;22;20074;-85
2023/02/20 10:26:26;;;;;;;33.83;19.65;;;9.10;99.90;;;;;;6248952;22;20004;-84
2023/02/20 10:28:51;;;;;;;25.80;16.05;;;9.10;99.90;;;;;;6249562;22;20015;-85
2023/02/20 10:31:38;;;;;;;29.73;17.00;;;9.00;99.90;;;;;;6248362;22;20004;-84
2023/02/20 10:34:11;;;;;;;32.10;17.88;;;9.00;99.90;;;;;;6248593;22;19999;-85
2023/02/20 10:36:49;;;;;;;36.42;18.33;;;9.00;99.90;;;;;;6249319;22;20088;-85
2023/02/20 10:39:18;;;;;;;30.45;16.70;;;9.00;99.90;;;;;;6247044;22;20011;-85
2023/02/20 10:41:53;;;;;;;31.50;16.98;;;9.00;99.90;;;;;;6248972;22;20544;-84
2023/02/20 10:44:30;;;;;;;26.38;15.95;;;9.00;99.90;;;;;;6247999;22;20433;-84
2023/02/20 10:47:05;;;;;;;31.70;16.00;;;9.00;99.90;;;;;;6247984;22;20018;-85
2023/02/20 10:49:37;;;;;;;30.48;15.95;;;9.10;99.90;;;;;;6248077;22;20038;-85
2023/02/20 10:52:07;;;;;;;25.42;14.38;;;9.00;99.90;;;;;;6247457;22;20008;-84
2023/02/20 10:54:44;;;;;;;32.38;15.80;;;9.00;99.90;;;;;;6247738;22;20042;-84
2023/02/20 10:57:21;;;;;;;27.13;15.38;;;9.00;99.90;;;;;;6246799;22;20010;-84
2023/02/20 11:00:10;;;;;;;29.42;15.20;;;9.00;99.90;;;;;;6244569;22;20004;-84
2023/02/20 11:02:51;;;;;;;30.15;15.82;;;9.10;99.90;;;;;;6245947;22;20377;-85
2023/02/20 11:05:21;;;;;;;30.23;15.85;;;9.00;99.90;;;;;;6273475;22;20012;-85
2023/02/20 11:07:48;;;;;;;31.08;15.65;;;9.00;99.90;;;;;;6247343;22;20010;-85
2023/02/20 11:10:14;;;;;;;25.05;15.20;;;9.00;99.90;;;;;;6274939;22;20053;-84
2023/02/20 11:12:47;;;;;;;27.30;14.70;;;9.00;99.90;;;;;;6246052;22;19999;-85
2023/02/20 11:15:17;;;;;;;27.77;17.77;;;9.00;99.90;;;;;;6274563;22;20023;-85
2023/02/20 11:17:43;;;;;;;27.95;15.23;;;9.00;99.90;;;;;;6247995;22;20031;-85
2023/02/20 11:20:31;;;;;;;30.00;15.23;;;9.00;99.90;;;;;;6246679;22;20020;-85
2023/02/20 11:23:00;;;;;;;31.23;15.05;;;9.10;99.90;;;;;;6247188;22;20016;-85
2023/02/20 11:25:30;;;;;;;32.00;15.15;;;9.10;99.90;;;;;;6247257;22;20011;-85
2023/02/20 11:27:59;;;;;;;22.33;13.80;;;9.10;99.90;;;;;;6247424;22;20048;-85
2023/02/20 11:30:34;;;;;;;29.65;11.65;;;9.20;99.90;;;;;;6247240;22;20003;-85
2023/02/20 11:33:28;;;;;;;23.27;10.75;;;9.20;99.90;;;;;;6247779;22;20003;-85
2023/02/20 11:36:07;;;;;;;22.77;9.68;;;9.20;99.90;;;;;;6246753;22;20007;-84
2023/02/20 11:38:34;;;;;;;25.15;10.73;;;9.30;99.90;;;;;;6249475;22;20082;-85
2023/02/20 11:41:08;;;;;;;17.13;10.02;;;9.30;99.90;;;;;;6275766;22;20337;-84
2023/02/20 11:43:39;;;;;;;28.27;11.25;;;9.40;99.90;;;;;;6275753;22;20016;-85
2023/02/20 11:46:15;;;;;;;20.45;9.63;;;9.40;99.90;;;;;;6246254;22;20003;-85
2023/02/20 11:48:58;;;;;;;23.20;10.38;;;9.40;99.90;;;;;;6277373;22;20010;-85
2023/02/20 11:51:30;;;;;;;;;;;9.50;99.90;;;;;;6248230;22;20073;-83
2023/02/20 11:54:20;;;;;;;25.75;9.70;;;9.40;99.90;;;;;;6276573;22;20256;-84
2023/02/20 11:57:05;;;;;;;16.00;8.63;;;9.40;99.90;;;;;;6246796;22;20008;-85
2023/02/20 11:59:42;;;;;;;23.20;8.50;;;9.40;99.90;;;;;;6248563;22;20002;-85
2023/02/20 12:02:16;;;;;;;21.83;8.50;;;9.40;99.90;;;;;;6248682;22;19995;-85
2023/02/20 12:05:02;;;;;;;17.52;7.30;;;9.50;99.90;;;;;;6276147;22;20064;-84
2023/02/20 12:07:36;;;;;;;14.27;5.47;;;9.50;99.90;;;;;;6251241;22;19999;-85
2023/02/20 12:10:26;;;;;;;13.90;6.63;;;9.50;99.90;;;;;;6249525;22;20008;-84
2023/02/20 12:12:53;;;;;;;15.25;6.40;;;9.50;99.90;;;;;;6275851;22;20000;-85
2023/02/20 12:15:23;;;;;;;22.13;7.47;;;9.60;99.90;;;;;;6276434;22;19999;-85
2023/02/20 12:18:24;;;;;;;16.55;5.78;;;9.60;99.90;;;;;;6250262;22;20004;-85
2023/02/20 12:21:33;;;;;;;12.30;5.97;;;9.70;99.90;;;;;;6276071;22;20018;-83
2023/02/20 12:24:07;;;;;;;10.43;3.97;;;9.70;99.90;;;;;;6173588;22;20449;-85
2023/02/20 12:26:58;;;;;;;14.00;4.80;;;9.70;99.90;;;;;;6247295;22;20010;-86
2023/02/20 12:29:49;;;;;;;12.02;4.80;;;9.70;99.90;;;;;;6249391;22;20031;-86
2023/02/20 12:32:31;;;;;;;11.25;4.15;;;9.70;99.90;;;;;;6249681;22;20059;-86
2023/02/20 12:35:24;;;;;;;14.57;5.80;;;9.80;99.90;;;;;;6250434;22;20057;-86
2023/02/20 12:38:04;;;;;;;12.50;4.82;;;9.80;99.90;;;;;;6250132;22;20090;-85
2023/02/20 12:41:01;;;;;;;11.90;5.22;;;9.80;99.90;;;;;;6248080;22;20000;-85
2023/02/20 12:43:35;;;;;;;12.05;4.97;;;9.80;99.90;;;;;;6247401;22;20011;-85
2023/02/20 12:46:39;;;;;;;12.30;5.70;;;9.80;99.90;;;;;;6249910;22;20007;-84
2023/02/20 12:49:42;;;;;;;9.27;5.13;;;9.80;99.90;;;;;;6248589;22;20035;-85
2023/02/20 12:52:13;;;;;;;9.65;4.50;;;9.70;99.90;;;;;;6250430;22;20384;-85
2023/02/20 12:55:13;;;;;;;11.05;4.53;;;9.70;99.90;;;;;;6250034;22;20010;-85
2023/02/20 12:58:03;;;;;;;9.45;4.80;;;9.70;99.90;;;;;;6277893;22;20097;-84
2023/02/20 13:00:35;;;;;;;14.18;4.18;;;9.70;99.90;;;;;;6277000;22;20003;-85
2023/02/20 13:03:21;;;;;;;12.10;4.95;;;9.70;99.90;;;;;;6249515;22;20000;-84
2023/02/20 13:05:48;;;;;;;11.00;4.22;;;9.70;99.90;;;;;;6250638;22;20441;-85
2023/02/20 13:08:26;;;;;;;10.63;3.88;;;9.70;99.90;;;;;;6276110;22;20049;-85
2023/02/20 13:10:56;;;;;;;8.65;3.30;;;9.70;99.90;;;;;;6249947;22;20030;-84
2023/02/20 13:13:25;;;;;;;9.55;3.67;;;9.80;99.90;;;;;;6249795;22;20007;-84
2023/02/20 13:16:05;;;;;;;8.70;3.60;;;9.80;99.90;;;;;;6250087;22;20003;-84
2023/02/20 13:18:44;;;;;;;8.57;4.15;;;9.80;99.90;;;;;;6249487;22;20031;-85
2023/02/20 13:21:16;;;;;;;8.88;3.35;;;9.80;99.90;;;;;;6250185;22;20107;-85
2023/02/20 13:23:42;;;;;;;6.43;3.70;;;9.80;99.90;;;;;;6249743;22;20008;-84